This is the latest recevied weather packets stored in our database for station/object KC9EGS. If no packets are shown the sender has not sent any weather packets the latest 10 day(s).
| Time | Temp. | Humidity | Pressure | Rain* | Wind** | Luminosity | Snow |
|---|---|---|---|---|---|---|---|
| 1777781117 | 10.56° C | 50% | 1004.9 hPa | 0 mm | - | - | - |
| 1777780512 | 10° C | 51% | 1005.1 hPa | 0 mm | - | - | - |
| 1777779916 | 10° C | 51% | 1005.1 hPa | 0 mm | - | - | - |
| 1777779612 | 9.44° C | 53% | 1005.6 hPa | 0 mm | - | - | - |
| 1777779317 | 8.89° C | 54% | 1005.6 hPa | 0 mm | - | - | - |
| 1777778711 | 8.89° C | 58% | 1005.8 hPa | 0 mm | - | - | - |
| 1777778116 | 8.89° C | 58% | 1005.8 hPa | 0 mm | - | - | - |
| 1777777811 | 8.89° C | 56% | 1006 hPa | 0 mm | - | - | - |
| 1777777518 | 8.89° C | 57% | 1006 hPa | 0 mm | - | - | - |
| 1777776913 | 8.89° C | 57% | 1006.2 hPa | 0 mm | - | - | - |
| 1777776316 | 9.44° C | 56% | 1006.2 hPa | 0 mm | - | - | - |
| 1777776012 | 9.44° C | 55% | 1006.2 hPa | 0 mm | - | - | - |
| 1777775717 | 9.44° C | 54% | 1006.2 hPa | 0 mm | - | - | - |
| 1777775113 | 10° C | 50% | 1006.3 hPa | 0 mm | - | - | - |
| 1777774517 | 10.56° C | 49% | 1006.3 hPa | 0 mm | - | - | - |
| 1777774212 | 11.11° C | 47% | 1006.6 hPa | 0 mm | - | - | - |
| 1777773918 | 11.11° C | 47% | 1006.6 hPa | 0 mm | - | - | - |
| 1777773312 | 11.67° C | 47% | 1006.5 hPa | 0 mm | - | - | - |
| 1777772717 | 12.22° C | 45% | 1006.5 hPa | 0 mm | - | - | - |
| 1777772412 | 12.22° C | 45% | 1006.5 hPa | 0 mm | - | - | - |
| 1777772116 | 12.22° C | 45% | 1006.5 hPa | 0 mm | - | - | - |
| 1777771511 | 12.78° C | 42% | 1006.6 hPa | 0 mm | - | - | - |
| 1777770916 | 12.78° C | 40% | 1006.6 hPa | 0 mm | - | - | - |
| 1777770611 | 12.78° C | 36% | 1006.9 hPa | 0 mm | - | - | - |
| 1777770316 | 12.78° C | 36% | 1006.9 hPa | 0 mm | - | - | - |
* Rain latest hour (hover to see other rain measurements)
** Current wind speed in m/s (hover to see current wind gust speed)